Portada
METAR-TAF:

METAR-TAF

Aeroports :

Pattaya-Rayong, Tailàndia

latitud: 12-38N, longitud: 101-21E, altitud: 3 m

Observació

L'informe es va fer fa 31 minuts, a les 13:30 UTC
Vent 9 kt del Sud/Sud-Est
Temperatura 31°C
Humitat 66%
Pressió 1007 hPa
Visibilitat: 7000 m
Escasses núvols a una alçada de 2000 ft

METAR: VTBU 221330Z 16009KT 7000 FEW020 31/24 Q1007 NOSIG

Hora: 21:01 (14:01 UTC)

Pronòstic

L'informe es va fer fa 3 hores i 1 minuts, a les 11:00 UTC
Pronòstic vàlid del 22 a les 12 UTC al 23 a les 12 UTC
Vent 8 kt del Sud
Visibilitat: 7000 m
Escasses núvols a una alçada de 2000 ft
Evolucionant progressivament
l' 23 a les 01 UTC al 23 a les 03 UTC
Vent 10 kt del Sud
Visibilitat: 9000 m

TAF: VTBU 221100Z 2212/2312 17008KT 7000 FEW020 BECMG 2301/2303 17010KT 9000

Observacions i pronòstics meteorològics de més de 4000 aeroports (METAR i TAF).

Les estacions disponibles són els punts grocs i vermells al mapa.

Posi el ratolí al punt desitjat per veure el nom de l'estació.

Feu clic per veure les observacions i els pronòstics meteorològics.

Per canviar el mapa: feu clic els botons verds amb una creu de color negre per apropar; al botó verd amb un guió per allunyar la imatge; o en les fletxes verdes per a mapes adjacents.


METAR-TAF: